sensor_id;sensor_type;location;lat;lon;timestamp;pressure;altitude;pressure_sealevel;temperature;humidity
32759;BME280;19125;52.360;9.974;2024-03-23T00:55:43;15309.34;;;-145.17;75.89
32759;BME280;19125;52.360;9.974;2024-03-23T00:58:08;15309.34;;;-145.17;75.78
32759;BME280;19125;52.360;9.974;2024-03-23T01:00:34;15808.34;;;-145.17;75.66
32759;BME280;19125;52.360;9.974;2024-03-23T01:02:59;16057.88;;;-145.17;75.64
32759;BME280;19125;52.360;9.974;2024-03-23T01:05:24;16307.41;;;-145.17;75.54
32759;BME280;19125;52.360;9.974;2024-03-23T01:07:50;16806.56;;;-145.17;75.76
32759;BME280;19125;52.360;9.974;2024-03-23T01:10:15;17305.75;;;-145.17;75.58
32759;BME280;19125;52.360;9.974;2024-03-23T01:12:40;17555.38;;;-145.17;75.49
32759;BME280;19125;52.360;9.974;2024-03-23T01:15:06;17805.03;;;-145.17;75.85
32759;BME280;19125;52.360;9.974;2024-03-23T01:17:31;18304.34;;;-145.17;75.70
32759;BME280;19125;52.360;9.974;2024-03-23T01:19:57;18803.75;;;-145.17;75.72
32759;BME280;19125;52.360;9.974;2024-03-23T01:22:22;18554.03;;;-145.17;75.38
32759;BME280;19125;52.360;9.974;2024-03-23T01:24:48;19053.47;;;-145.17;75.52
32759;BME280;19125;52.360;9.974;2024-03-23T01:27:13;19303.19;;;-145.17;75.36
32759;BME280;19125;52.360;9.974;2024-03-23T01:29:39;19552.97;;;-145.17;75.29
32759;BME280;19125;52.360;9.974;2024-03-23T01:32:05;20302.31;;;-145.17;75.31
32759;BME280;19125;52.360;9.974;2024-03-23T01:34:31;20302.31;;;-145.17;74.97
32759;BME280;19125;52.360;9.974;2024-03-23T01:36:56;20552.13;;;-145.17;75.15
32759;BME280;19125;52.360;9.974;2024-03-23T01:39:21;20052.50;;;-145.17;75.54
32759;BME280;19125;52.360;9.974;2024-03-23T01:41:47;19802.72;;;-145.17;75.20
32759;BME280;19125;52.360;9.974;2024-03-23T01:44:12;20302.31;;;-145.17;75.02
32759;BME280;19125;52.360;9.974;2024-03-23T01:46:38;20801.97;;;-145.17;75.17
32759;BME280;19125;52.360;9.974;2024-03-23T01:49:04;21301.69;;;-145.17;75.39
32759;BME280;19125;52.360;9.974;2024-03-23T01:51:30;21551.56;;;-145.17;75.33
32759;BME280;19125;52.360;9.974;2024-03-23T01:53:57;21801.44;;;-145.17;75.42
32759;BME280;19125;52.360;9.974;2024-03-23T01:56:26;22301.28;;;-145.17;75.12
32759;BME280;19125;52.360;9.974;2024-03-23T01:58:51;23051.19;;;-145.17;75.06
32759;BME280;19125;52.360;9.974;2024-03-23T02:01:16;22801.19;;;-145.17;75.20
32759;BME280;19125;52.360;9.974;2024-03-23T02:03:42;23301.19;;;-145.17;74.84
32759;BME280;19125;52.360;9.974;2024-03-23T02:06:08;23301.19;;;-145.17;75.15
32759;BME280;19125;52.360;9.974;2024-03-23T02:08:34;23551.19;;;-145.17;74.68
32759;BME280;19125;52.360;9.974;2024-03-23T02:10:59;24051.25;;;-145.17;74.94
32759;BME280;19125;52.360;9.974;2024-03-23T02:13:25;23801.22;;;-145.17;75.00
32759;BME280;19125;52.360;9.974;2024-03-23T02:15:50;24051.25;;;-145.17;75.23
32759;BME280;19125;52.360;9.974;2024-03-23T02:18:15;24301.31;;;-145.17;74.97
32759;BME280;19125;52.360;9.974;2024-03-23T02:20:41;24801.47;;;-145.17;74.71
32759;BME280;19125;52.360;9.974;2024-03-23T02:23:13;24551.38;;;-145.17;75.24
32759;BME280;19125;52.360;9.974;2024-03-23T02:25:38;24301.31;;;-145.17;74.85
32759;BME280;19125;52.360;9.974;2024-03-23T02:28:04;24051.25;;;-145.17;74.93
32759;BME280;19125;52.360;9.974;2024-03-23T02:30:30;24301.31;;;-145.17;75.58
32759;BME280;19125;52.360;9.974;2024-03-23T02:32:55;24051.25;;;-145.17;75.12
32759;BME280;19125;52.360;9.974;2024-03-23T02:35:21;24051.25;;;-145.17;75.08
32759;BME280;19125;52.360;9.974;2024-03-23T02:37:46;23801.22;;;-145.17;75.13
32759;BME280;19125;52.360;9.974;2024-03-23T02:40:14;23801.22;;;-145.17;75.04
32759;BME280;19125;52.360;9.974;2024-03-23T02:42:39;23551.19;;;-145.17;75.35
32759;BME280;19125;52.360;9.974;2024-03-23T02:45:05;23801.22;;;-145.17;75.30
32759;BME280;19125;52.360;9.974;2024-03-23T02:47:30;24051.25;;;-145.17;75.33
32759;BME280;19125;52.360;9.974;2024-03-23T02:49:56;24301.31;;;-145.17;75.27
32759;BME280;19125;52.360;9.974;2024-03-23T02:52:21;24551.38;;;-145.17;75.06
32759;BME280;19125;52.360;9.974;2024-03-23T02:54:46;24551.38;;;-145.17;75.16
32759;BME280;19125;52.360;9.974;2024-03-23T02:57:12;25301.69;;;-145.17;75.07
32759;BME280;19125;52.360;9.974;2024-03-23T02:59:37;25551.84;;;-145.17;75.35
32759;BME280;19125;52.360;9.974;2024-03-23T03:02:02;25551.84;;;-145.17;75.25
32759;BME280;19125;52.360;9.974;2024-03-23T03:04:30;26552.53;;;-145.17;75.06
32759;BME280;19125;52.360;9.974;2024-03-23T03:06:55;27053.00;;;-145.17;75.06
32759;BME280;19125;52.360;9.974;2024-03-23T03:09:20;27303.25;;;-145.17;74.86
32759;BME280;19125;52.360;9.974;2024-03-23T03:11:46;27803.78;;;-145.17;74.83
32759;BME280;19125;52.360;9.974;2024-03-23T03:14:11;28054.09;;;-145.17;74.63
32759;BME280;19125;52.360;9.974;2024-03-23T03:16:37;28054.09;;;-145.17;74.35
32759;BME280;19125;52.360;9.974;2024-03-23T03:19:03;28054.09;;;-145.17;74.88
32759;BME280;19125;52.360;9.974;2024-03-23T03:21:28;28304.41;;;-145.17;74.84
32759;BME280;19125;52.360;9.974;2024-03-23T03:23:53;28054.09;;;-145.17;75.08
32759;BME280;19125;52.360;9.974;2024-03-23T03:26:21;28054.09;;;-145.17;74.89
32759;BME280;19125;52.360;9.974;2024-03-23T03:28:47;27803.78;;;-145.17;74.84
32759;BME280;19125;52.360;9.974;2024-03-23T03:31:19;28054.09;;;-145.17;75.33
32759;BME280;19125;52.360;9.974;2024-03-23T03:33:45;28054.09;;;-145.17;75.01
32759;BME280;19125;52.360;9.974;2024-03-23T03:36:11;27803.78;;;-145.17;74.78
32759;BME280;19125;52.360;9.974;2024-03-23T03:38:36;27803.78;;;-145.17;75.23
32759;BME280;19125;52.360;9.974;2024-03-23T03:41:02;28054.09;;;-145.17;74.73
32759;BME280;19125;52.360;9.974;2024-03-23T03:43:27;27803.78;;;-145.17;74.51
32759;BME280;19125;52.360;9.974;2024-03-23T03:45:57;27803.78;;;-145.17;74.91
32759;BME280;19125;52.360;9.974;2024-03-23T03:48:23;26802.75;;;-145.17;74.92
32759;BME280;19125;52.360;9.974;2024-03-23T03:50:49;26552.53;;;-145.17;74.86
32759;BME280;19125;52.360;9.974;2024-03-23T03:53:14;26552.53;;;-145.17;75.10
32759;BME280;19125;52.360;9.974;2024-03-23T03:55:40;26552.53;;;-145.17;74.93
32759;BME280;19125;52.360;9.974;2024-03-23T03:58:05;26302.34;;;-145.17;75.06
32759;BME280;19125;52.360;9.974;2024-03-23T04:00:31;26052.16;;;-145.17;75.05
32759;BME280;19125;52.360;9.974;2024-03-23T04:02:56;25802.00;;;-145.17;75.13
32759;BME280;19125;52.360;9.974;2024-03-23T04:05:22;24801.47;;;-145.17;75.21
32759;BME280;19125;52.360;9.974;2024-03-23T04:07:47;24051.25;;;-145.17;74.87
32759;BME280;19125;52.360;9.974;2024-03-23T04:10:13;23301.19;;;-145.17;75.09
32759;BME280;19125;52.360;9.974;2024-03-23T04:12:40;23051.19;;;-145.17;75.19
32759;BME280;19125;52.360;9.974;2024-03-23T04:15:05;22551.25;;;-145.17;75.53
32759;BME280;19125;52.360;9.974;2024-03-23T04:17:31;22301.28;;;-145.17;75.50
32759;BME280;19125;52.360;9.974;2024-03-23T04:19:58;22051.38;;;-145.17;75.29
32759;BME280;19125;52.360;9.974;2024-03-23T04:22:24;22051.38;;;-145.17;75.39
32759;BME280;19125;52.360;9.974;2024-03-23T04:24:56;21801.44;;;-145.17;75.43
32759;BME280;19125;52.360;9.974;2024-03-23T04:27:22;21551.56;;;-145.17;75.35
32759;BME280;19125;52.360;9.974;2024-03-23T04:29:49;21801.44;;;-145.17;75.32
32759;BME280;19125;52.360;9.974;2024-03-23T04:32:14;22301.28;;;-145.17;75.04
32759;BME280;19125;52.360;9.974;2024-03-23T04:34:40;22801.19;;;-145.17;75.52
32759;BME280;19125;52.360;9.974;2024-03-23T04:37:06;23301.19;;;-145.17;75.10
32759;BME280;19125;52.360;9.974;2024-03-23T04:39:31;23801.22;;;-145.17;75.20
32759;BME280;19125;52.360;9.974;2024-03-23T04:41:56;24051.25;;;-145.17;75.19
32759;BME280;19125;52.360;9.974;2024-03-23T04:44:21;25301.69;;;-145.17;74.81
32759;BME280;19125;52.360;9.974;2024-03-23T04:46:47;28054.09;;;-145.17;74.22
32759;BME280;19125;52.360;9.974;2024-03-23T04:49:12;31559.94;;;-145.17;73.76
32759;BME280;19125;52.360;9.974;2024-03-23T04:51:38;35570.47;;;-145.17;73.11
32759;BME280;19125;52.360;9.974;2024-03-23T04:54:03;40589.41;;;-145.17;72.98
32759;BME280;19125;52.360;9.974;2024-03-23T04:56:29;45363.34;;;-145.17;72.59
32759;BME280;19125;52.360;9.974;2024-03-23T04:58:56;50898.28;;;-145.17;71.56
32759;BME280;19125;52.360;9.974;2024-03-23T05:01:26;60476.91;;;-145.17;70.70
32759;BME280;19125;52.360;9.974;2024-03-23T05:03:52;71936.94;;;-145.17;70.27
32759;BME280;19125;52.360;9.974;2024-03-23T05:06:18;79030.00;;;-145.17;69.47
32759;BME280;19125;52.360;9.974;2024-03-23T05:08:43;82505.94;;;-145.17;69.13
32759;BME280;19125;52.360;9.974;2024-03-23T05:11:08;84379.88;;;-145.17;68.75
32759;BME280;19125;52.360;9.974;2024-03-23T05:13:34;85326.13;;;-145.17;68.56
32759;BME280;19125;52.360;9.974;2024-03-23T05:15:59;85881.69;;;-145.17;68.38
32759;BME280;19125;52.360;9.974;2024-03-23T05:18:24;86157.50;;;-145.17;68.40
32759;BME280;19125;52.360;9.974;2024-03-23T05:20:56;86373.78;;;-145.17;67.95
32759;BME280;19125;52.360;9.974;2024-03-23T05:23:21;86510.72;;;-145.17;67.87
32759;BME280;19125;52.360;9.974;2024-03-23T05:25:47;86659.56;;;-145.17;68.13
32759;BME280;19125;52.360;9.974;2024-03-23T05:28:12;86800.47;;;-145.17;67.81
32759;BME280;19125;52.360;9.974;2024-03-23T05:30:38;86905.66;;;-145.17;67.64
32759;BME280;19125;52.360;9.974;2024-03-23T05:33:03;87076.34;;;-145.17;66.79
32759;BME280;19125;52.360;9.974;2024-03-23T05:35:29;87249.03;;;-145.17;65.87
32759;BME280;19125;52.360;9.974;2024-03-23T05:37:54;87294.69;;;-145.17;65.15
32759;BME280;19125;52.360;9.974;2024-03-23T05:40:19;87306.59;;;-145.17;64.27
32759;BME280;19125;52.360;9.974;2024-03-23T05:42:44;87322.47;;;-145.17;64.34
32759;BME280;19125;52.360;9.974;2024-03-23T05:45:10;87251.03;;;-145.17;63.08
32759;BME280;19125;52.360;9.974;2024-03-23T05:47:36;87245.06;;;-145.17;62.38
32759;BME280;19125;52.360;9.974;2024-03-23T05:50:01;87253.00;;;-145.17;61.68
32759;BME280;19125;52.360;9.974;2024-03-23T05:52:27;87203.38;;;-145.17;61.62
32759;BME280;19125;52.360;9.974;2024-03-23T05:54:53;87211.31;;;-145.17;61.31
32759;BME280;19125;52.360;9.974;2024-03-23T05:57:18;87177.59;;;-145.17;60.45
32759;BME280;19125;52.360;9.974;2024-03-23T05:59:44;87209.34;;;-145.17;60.11
32759;BME280;19125;52.360;9.974;2024-03-23T06:02:09;87112.09;;;-145.17;59.54
32759;BME280;19125;52.360;9.974;2024-03-23T06:04:35;87135.91;;;-145.17;59.43
32759;BME280;19125;52.360;9.974;2024-03-23T06:07:01;87104.16;;;-145.17;59.76
32759;BME280;19125;52.360;9.974;2024-03-23T06:09:26;87139.88;;;-145.17;59.62
32759;BME280;19125;52.360;9.974;2024-03-23T06:11:52;87133.91;;;-145.17;59.94
32759;BME280;19125;52.360;9.974;2024-03-23T06:14:17;87169.66;;;-145.17;60.09
32759;BME280;19125;52.360;9.974;2024-03-23T06:16:42;87161.72;;;-145.17;60.36
32759;BME280;19125;52.360;9.974;2024-03-23T06:19:08;87167.66;;;-145.17;61.05
32759;BME280;19125;52.360;9.974;2024-03-23T06:21:33;87201.41;;;-145.17;61.03
32759;BME280;19125;52.360;9.974;2024-03-23T06:23:59;87183.53;;;-145.17;61.02
32759;BME280;19125;52.360;9.974;2024-03-23T06:26:24;87193.47;;;-145.17;61.24
32759;BME280;19125;52.360;9.974;2024-03-23T06:28:50;87203.38;;;-145.17;61.84
32759;BME280;19125;52.360;9.974;2024-03-23T06:31:15;87179.56;;;-145.17;61.64
32759;BME280;19125;52.360;9.974;2024-03-23T06:33:40;87203.38;;;-145.17;61.45
32759;BME280;19125;52.360;9.974;2024-03-23T06:36:09;87209.34;;;-145.17;61.80
32759;BME280;19125;52.360;9.974;2024-03-23T06:38:35;87223.25;;;-145.17;61.91
32759;BME280;19125;52.360;9.974;2024-03-23T06:41:04;87207.34;;;-145.17;61.84
32759;BME280;19125;52.360;9.974;2024-03-23T06:43:30;87211.31;;;-145.17;62.18
32759;BME280;19125;52.360;9.974;2024-03-23T06:45:56;87207.34;;;-145.17;62.45
32759;BME280;19125;52.360;9.974;2024-03-23T06:48:21;87199.41;;;-145.17;62.44
32759;BME280;19125;52.360;9.974;2024-03-23T06:50:47;87219.28;;;-145.17;62.39
32759;BME280;19125;52.360;9.974;2024-03-23T06:53:13;87209.34;;;-145.17;62.70
32759;BME280;19125;52.360;9.974;2024-03-23T06:55:39;87227.22;;;-145.17;62.90
32759;BME280;19125;52.360;9.974;2024-03-23T06:58:04;87239.13;;;-145.17;62.82
32759;BME280;19125;52.360;9.974;2024-03-23T07:00:30;87264.91;;;-145.17;62.92
32759;BME280;19125;52.360;9.974;2024-03-23T07:02:55;87215.31;;;-145.17;62.98
32759;BME280;19125;52.360;9.974;2024-03-23T07:05:20;87306.59;;;-145.17;63.29
32759;BME280;19125;52.360;9.974;2024-03-23T07:07:46;87262.94;;;-145.17;63.30
32759;BME280;19125;52.360;9.974;2024-03-23T07:10:11;87251.03;;;-145.17;63.14
32759;BME280;19125;52.360;9.974;2024-03-23T07:12:36;87219.28;;;-145.17;63.49
32759;BME280;19125;52.360;9.974;2024-03-23T07:15:02;87247.06;;;-145.17;63.35
32759;BME280;19125;52.360;9.974;2024-03-23T07:17:27;87213.31;;;-145.17;63.81
32759;BME280;19125;52.360;9.974;2024-03-23T07:19:53;87268.88;;;-145.17;63.78
32759;BME280;19125;52.360;9.974;2024-03-23T07:22:18;87294.69;;;-145.17;63.92
32759;BME280;19125;52.360;9.974;2024-03-23T07:24:44;87284.78;;;-145.17;64.00
32759;BME280;19125;52.360;9.974;2024-03-23T07:27:09;87296.69;;;-145.17;64.49
32759;BME280;19125;52.360;9.974;2024-03-23T07:29:37;87262.94;;;-145.17;64.24
32759;BME280;19125;52.360;9.974;2024-03-23T07:32:03;87235.16;;;-145.17;64.57
32759;BME280;19125;52.360;9.974;2024-03-23T07:34:28;87235.16;;;-145.17;64.68
32759;BME280;19125;52.360;9.974;2024-03-23T07:36:53;87239.13;;;-145.17;64.88
32759;BME280;19125;52.360;9.974;2024-03-23T07:39:19;87262.94;;;-145.17;64.47
32759;BME280;19125;52.360;9.974;2024-03-23T07:41:45;87274.84;;;-145.17;64.54
32759;BME280;19125;52.360;9.974;2024-03-23T07:44:10;87362.19;;;-145.17;64.31
32759;BME280;19125;52.360;9.974;2024-03-23T07:46:36;87338.38;;;-145.17;64.67
32759;BME280;19125;52.360;9.974;2024-03-23T07:49:01;87255.00;;;-145.17;64.63
32759;BME280;19125;52.360;9.974;2024-03-23T07:51:27;87231.19;;;-145.17;64.67
32759;BME280;19125;52.360;9.974;2024-03-23T07:53:52;87227.22;;;-145.17;64.86
32759;BME280;19125;52.360;9.974;2024-03-23T07:56:18;87217.28;;;-145.17;64.59
32759;BME280;19125;52.360;9.974;2024-03-23T07:58:44;87223.25;;;-145.17;64.64
32759;BME280;19125;52.360;9.974;2024-03-23T08:01:17;87211.31;;;-145.17;64.71
32759;BME280;19125;52.360;9.974;2024-03-23T08:03:44;87213.31;;;-145.17;64.68
32759;BME280;19125;52.360;9.974;2024-03-23T08:06:14;87185.53;;;-145.17;64.33
32759;BME280;19125;52.360;9.974;2024-03-23T08:08:40;87223.25;;;-145.17;64.71
32759;BME280;19125;52.360;9.974;2024-03-23T08:11:06;87163.69;;;-145.17;64.52
32759;BME280;19125;52.360;9.974;2024-03-23T08:13:33;87193.47;;;-145.17;64.19
32759;BME280;19125;52.360;9.974;2024-03-23T08:16:02;87155.75;;;-145.17;64.57
32759;BME280;19125;52.360;9.974;2024-03-23T08:18:29;87161.72;;;-145.17;64.77
32759;BME280;19125;52.360;9.974;2024-03-23T08:21:05;87219.28;;;-145.17;65.09
32759;BME280;19125;52.360;9.974;2024-03-23T08:23:32;87231.19;;;-145.17;64.90
32759;BME280;19125;52.360;9.974;2024-03-23T08:26:06;87203.38;;;-145.17;65.01
32759;BME280;19125;52.360;9.974;2024-03-23T08:28:32;87197.44;;;-145.17;65.63
32759;BME280;19125;52.360;9.974;2024-03-23T08:31:01;87187.50;;;-145.17;65.48
32759;BME280;19125;52.360;9.974;2024-03-23T08:33:27;87209.34;;;-145.17;65.70
32759;BME280;19125;52.360;9.974;2024-03-23T08:36:06;87197.44;;;-145.17;66.00
32759;BME280;19125;52.360;9.974;2024-03-23T08:38:32;87175.59;;;-145.17;66.40
32759;BME280;19125;52.360;9.974;2024-03-23T08:41:08;87207.34;;;-145.17;66.58
32759;BME280;19125;52.360;9.974;2024-03-23T08:43:41;87191.47;;;-145.17;66.28
32759;BME280;19125;52.360;9.974;2024-03-23T08:46:08;87201.41;;;-145.17;66.35
32759;BME280;19125;52.360;9.974;2024-03-23T08:48:35;87211.31;;;-145.17;66.20
32759;BME280;19125;52.360;9.974;2024-03-23T08:51:05;87191.47;;;-145.17;65.99
32759;BME280;19125;52.360;9.974;2024-03-23T08:53:31;87159.72;;;-145.17;65.71
32759;BME280;19125;52.360;9.974;2024-03-23T08:55:57;87197.44;;;-145.17;65.08
32759;BME280;19125;52.360;9.974;2024-03-23T08:58:24;87203.38;;;-145.17;64.85
32759;BME280;19125;52.360;9.974;2024-03-23T09:00:51;87120.03;;;-145.17;63.46
32759;BME280;19125;52.360;9.974;2024-03-23T09:03:16;87068.41;;;-145.17;62.51
32759;BME280;19125;52.360;9.974;2024-03-23T09:05:42;87104.16;;;-145.17;61.22
32759;BME280;19125;52.360;9.974;2024-03-23T09:08:07;87022.78;;;-145.17;60.17
32759;BME280;19125;52.360;9.974;2024-03-23T09:10:39;86945.38;;;-145.17;59.52
32759;BME280;19125;52.360;9.974;2024-03-23T09:13:05;86937.44;;;-145.17;59.21
32759;BME280;19125;52.360;9.974;2024-03-23T09:15:30;87028.72;;;-145.17;58.68
32759;BME280;19125;52.360;9.974;2024-03-23T09:17:59;86929.47;;;-145.17;58.17
32759;BME280;19125;52.360;9.974;2024-03-23T09:20:24;86846.13;;;-145.17;57.31
32759;BME280;19125;52.360;9.974;2024-03-23T09:22:49;86856.06;;;-145.17;56.72
32759;BME280;19125;52.360;9.974;2024-03-23T09:25:15;86826.28;;;-145.17;56.11
32759;BME280;19125;52.360;9.974;2024-03-23T09:27:40;86822.31;;;-145.17;56.10
32759;BME280;19125;52.360;9.974;2024-03-23T09:30:06;86838.19;;;-145.17;55.17
32759;BME280;19125;52.360;9.974;2024-03-23T09:32:31;86858.03;;;-145.17;54.75
32759;BME280;19125;52.360;9.974;2024-03-23T09:34:56;86891.78;;;-145.17;55.08
32759;BME280;19125;52.360;9.974;2024-03-23T09:37:22;86830.25;;;-145.17;54.76
32759;BME280;19125;52.360;9.974;2024-03-23T09:39:47;86820.31;;;-145.17;54.23
32759;BME280;19125;52.360;9.974;2024-03-23T09:42:12;86822.31;;;-145.17;54.39
32759;BME280;19125;52.360;9.974;2024-03-23T09:44:39;86794.53;;;-145.17;53.58
32759;BME280;19125;52.360;9.974;2024-03-23T09:47:04;86776.66;;;-145.17;53.19
32759;BME280;19125;52.360;9.974;2024-03-23T09:49:31;86758.81;;;-145.17;52.54
32759;BME280;19125;52.360;9.974;2024-03-23T09:51:57;86758.81;;;-145.17;51.45
32759;BME280;19125;52.360;9.974;2024-03-23T09:54:24;86746.91;;;-145.17;51.80
32759;BME280;19125;52.360;9.974;2024-03-23T09:56:49;86758.81;;;-145.17;51.90
32759;BME280;19125;52.360;9.974;2024-03-23T09:59:14;86780.63;;;-145.17;51.88
32759;BME280;19125;52.360;9.974;2024-03-23T10:01:40;86814.38;;;-145.17;51.61
32759;BME280;19125;52.360;9.974;2024-03-23T10:04:06;86818.34;;;-145.17;52.16
32759;BME280;19125;52.360;9.974;2024-03-23T10:06:31;86844.13;;;-145.17;52.83
32759;BME280;19125;52.360;9.974;2024-03-23T10:08:57;86879.88;;;-145.17;53.54
32759;BME280;19125;52.360;9.974;2024-03-23T10:11:22;86891.78;;;-145.17;53.86
32759;BME280;19125;52.360;9.974;2024-03-23T10:13:47;86838.19;;;-145.17;53.76
32759;BME280;19125;52.360;9.974;2024-03-23T10:16:21;86810.41;;;-145.17;53.07
32759;BME280;19125;52.360;9.974;2024-03-23T10:18:47;86774.69;;;-145.17;52.24
32759;BME280;19125;52.360;9.974;2024-03-23T10:21:14;86731.00;;;-145.17;51.44
32759;BME280;19125;52.360;9.974;2024-03-23T10:23:41;86711.16;;;-145.17;49.89
32759;BME280;19125;52.360;9.974;2024-03-23T10:26:15;86681.41;;;-145.17;48.75
32759;BME280;19125;52.360;9.974;2024-03-23T10:31:16;86663.53;;;-145.17;47.71
32759;BME280;19125;52.360;9.974;2024-03-23T10:33:48;86669.50;;;-145.17;47.55
32759;BME280;19125;52.360;9.974;2024-03-23T10:36:13;86657.59;;;-145.17;47.87
32759;BME280;19125;52.360;9.974;2024-03-23T10:38:41;86669.50;;;-145.17;47.56
32759;BME280;19125;52.360;9.974;2024-03-23T10:41:08;86643.69;;;-145.17;46.83
32759;BME280;19125;52.360;9.974;2024-03-23T10:43:36;86657.59;;;-145.17;46.24
32759;BME280;19125;52.360;9.974;2024-03-23T10:46:02;86659.56;;;-145.17;45.72
32759;BME280;19125;52.360;9.974;2024-03-23T10:48:27;86627.81;;;-145.17;45.02
32759;BME280;19125;52.360;9.974;2024-03-23T10:50:54;86621.88;;;-145.17;44.95
32759;BME280;19125;52.360;9.974;2024-03-23T10:53:21;86602.00;;;-145.17;43.77
32759;BME280;19125;52.360;9.974;2024-03-23T10:55:50;86600.03;;;-145.17;43.49
32759;BME280;19125;52.360;9.974;2024-03-23T10:58:18;86691.31;;;-145.17;42.17
32759;BME280;19125;52.360;9.974;2024-03-23T11:00:46;86639.72;;;-145.17;41.93
32759;BME280;19125;52.360;9.974;2024-03-23T11:03:31;86637.75;;;-145.17;42.04
32759;BME280;19125;52.360;9.974;2024-03-23T11:05:57;86697.28;;;-145.17;43.07
32759;BME280;19125;52.360;9.974;2024-03-23T11:08:33;86772.69;;;-145.17;44.25
32759;BME280;19125;52.360;9.974;2024-03-23T11:11:31;86834.22;;;-145.17;45.79
32759;BME280;19125;52.360;9.974;2024-03-23T11:13:59;86826.28;;;-145.17;46.65
32759;BME280;19125;52.360;9.974;2024-03-23T11:16:26;86869.94;;;-145.17;47.60
32759;BME280;19125;52.360;9.974;2024-03-23T11:19:33;86901.69;;;-145.17;47.99
32759;BME280;19125;52.360;9.974;2024-03-23T11:21:59;86925.50;;;-145.17;47.21
32759;BME280;19125;52.360;9.974;2024-03-23T11:24:24;86840.16;;;-145.17;47.04
32759;BME280;19125;52.360;9.974;2024-03-23T11:26:50;86830.25;;;-145.17;46.49
32759;BME280;19125;52.360;9.974;2024-03-23T11:29:16;86774.69;;;-145.17;46.46
32759;BME280;19125;52.360;9.974;2024-03-23T11:31:50;86756.81;;;-145.17;45.75
32759;BME280;19125;52.360;9.974;2024-03-23T11:34:20;86762.78;;;-145.17;45.05
32759;BME280;19125;52.360;9.974;2024-03-23T11:36:46;86774.69;;;-145.17;45.67
32759;BME280;19125;52.360;9.974;2024-03-23T11:39:19;86764.75;;;-145.17;45.92
32759;BME280;19125;52.360;9.974;2024-03-23T11:42:03;86846.13;;;-145.17;47.26
32759;BME280;19125;52.360;9.974;2024-03-23T11:44:29;86836.19;;;-145.17;48.53
32759;BME280;19125;52.360;9.974;2024-03-23T11:47:07;86887.81;;;-145.17;49.85
32759;BME280;19125;52.360;9.974;2024-03-23T11:49:32;86877.88;;;-145.17;50.61
32759;BME280;19125;52.360;9.974;2024-03-23T11:51:58;86854.06;;;-145.17;50.98
32759;BME280;19125;52.360;9.974;2024-03-23T11:54:24;86786.59;;;-145.17;50.82
32759;BME280;19125;52.360;9.974;2024-03-23T11:56:57;86766.75;;;-145.17;49.92
32759;BME280;19125;52.360;9.974;2024-03-23T11:59:49;86637.75;;;-145.17;49.49
32759;BME280;19125;52.360;9.974;2024-03-23T12:02:18;86693.31;;;-145.17;47.62
32759;BME280;19125;52.360;9.974;2024-03-23T12:04:43;86733.00;;;-145.17;47.23
32759;BME280;19125;52.360;9.974;2024-03-23T12:07:17;86750.88;;;-145.17;46.81
32759;BME280;19125;52.360;9.974;2024-03-23T12:09:49;86810.41;;;-145.17;48.35
32759;BME280;19125;52.360;9.974;2024-03-23T12:12:27;86864.00;;;-145.17;50.48
32759;BME280;19125;52.360;9.974;2024-03-23T12:15:06;86917.56;;;-145.17;52.11
32759;BME280;19125;52.360;9.974;2024-03-23T12:17:33;86983.06;;;-145.17;53.42
32759;BME280;19125;52.360;9.974;2024-03-23T12:20:00;86998.94;;;-145.17;53.68
32759;BME280;19125;52.360;9.974;2024-03-23T12:22:25;86983.06;;;-145.17;54.28
32759;BME280;19125;52.360;9.974;2024-03-23T12:24:51;87012.84;;;-145.17;54.40
32759;BME280;19125;52.360;9.974;2024-03-23T12:27:17;86975.13;;;-145.17;55.03
32759;BME280;19125;52.360;9.974;2024-03-23T12:29:42;87032.69;;;-145.17;55.11
32759;BME280;19125;52.360;9.974;2024-03-23T12:32:12;86981.09;;;-145.17;55.30
32759;BME280;19125;52.360;9.974;2024-03-23T12:34:38;86989.03;;;-145.17;55.21
32759;BME280;19125;52.360;9.974;2024-03-23T12:37:03;86983.06;;;-145.17;55.27
32759;BME280;19125;52.360;9.974;2024-03-23T12:39:29;86969.19;;;-145.17;55.16
32759;BME280;19125;52.360;9.974;2024-03-23T12:41:54;86929.47;;;-145.17;55.05
32759;BME280;19125;52.360;9.974;2024-03-23T12:44:20;86967.19;;;-145.17;54.92
32759;BME280;19125;52.360;9.974;2024-03-23T12:46:46;86905.66;;;-145.17;54.02
32759;BME280;19125;52.360;9.974;2024-03-23T12:49:11;86907.66;;;-145.17;53.92
32759;BME280;19125;52.360;9.974;2024-03-23T12:51:37;86862.00;;;-145.17;53.45
32759;BME280;19125;52.360;9.974;2024-03-23T12:54:02;86854.06;;;-145.17;53.01
32759;BME280;19125;52.360;9.974;2024-03-23T12:56:28;86862.00;;;-145.17;52.58
32759;BME280;19125;52.360;9.974;2024-03-23T12:58:56;86842.16;;;-145.17;52.00
32759;BME280;19125;52.360;9.974;2024-03-23T13:01:26;86830.25;;;-145.17;52.38
32759;BME280;19125;52.360;9.974;2024-03-23T13:03:51;86901.69;;;-145.17;51.80
32759;BME280;19125;52.360;9.974;2024-03-23T13:06:17;86826.28;;;-145.17;51.67
32759;BME280;19125;52.360;9.974;2024-03-23T13:08:46;86844.13;;;-145.17;51.17
32759;BME280;19125;52.360;9.974;2024-03-23T13:11:12;86858.03;;;-145.17;50.50
32759;BME280;19125;52.360;9.974;2024-03-23T13:13:38;86826.28;;;-145.17;49.52
32759;BME280;19125;52.360;9.974;2024-03-23T13:16:04;86804.44;;;-145.17;48.80
32759;BME280;19125;52.360;9.974;2024-03-23T13:18:31;86830.25;;;-145.17;48.96
32759;BME280;19125;52.360;9.974;2024-03-23T13:20:56;86794.53;;;-145.17;48.66
32759;BME280;19125;52.360;9.974;2024-03-23T13:23:21;86786.59;;;-145.17;48.50
32759;BME280;19125;52.360;9.974;2024-03-23T13:25:54;86832.22;;;-145.17;48.63
32759;BME280;19125;52.360;9.974;2024-03-23T13:28:20;86814.38;;;-145.17;47.80
32759;BME280;19125;52.360;9.974;2024-03-23T13:30:53;86786.59;;;-145.17;47.69
32759;BME280;19125;52.360;9.974;2024-03-23T13:33:18;86754.84;;;-145.17;48.11
32759;BME280;19125;52.360;9.974;2024-03-23T13:35:54;86729.03;;;-145.17;46.94